<?xml version="1.0" encoding="UTF-8" standalone="no" ?>
<gpx xmlns="http://www.topografix.com/GPX/1/1" xmlns:xsi="http://www.w3.org/2001/XMLSchema-instance" xsi:schemaLocation="http://www.topografix.com/GPX/1/1 http://www.topografix.com/GPX/1/1/gpx.xsd" version="1.1" creator="VisuGPX - https://www.visugpx.com">
  <metadata>
    <name>Tour du Torragion Etape 3 - Breil - Saorge</name>
    <desc><![CDATA[Fait de la journée, Alain nous à rejoin. On monte et on redescend beaucoup ]]></desc>
  </metadata>
  <trk>
    <name><![CDATA[Menton San Remo Etape 3 : Breil - Saorge]]></name>
    <trkseg>
      <trkpt lat="43.9397" lon="7.51589">
        <ele>259</ele>
        <time>2016-05-23T07:58:44Z</time>
      </trkpt>
      <trkpt lat="43.93968" lon="7.51593">
        <ele>262</ele>
        <time>2016-05-23T07:58:47Z</time>
      </trkpt>
      <trkpt lat="43.93997" lon="7.51625">
        <ele>259</ele>
        <time>2016-05-23T07:59:30Z</time>
      </trkpt>
      <trkpt lat="43.94004" lon="7.51646">
        <ele>270</ele>
        <time>2016-05-23T07:59:57Z</time>
      </trkpt>
      <trkpt lat="43.93976" lon="7.51668">
        <ele>260</ele>
        <time>2016-05-23T08:00:11Z</time>
      </trkpt>
      <trkpt lat="43.9396" lon="7.51675">
        <ele>272</ele>
        <time>2016-05-23T08:00:32Z</time>
      </trkpt>
      <trkpt lat="43.93943" lon="7.5167">
        <ele>271</ele>
        <time>2016-05-23T08:00:55Z</time>
      </trkpt>
      <trkpt lat="43.93947" lon="7.51694">
        <ele>268</ele>
        <time>2016-05-23T08:01:20Z</time>
      </trkpt>
      <trkpt lat="43.93956" lon="7.51715">
        <ele>275</ele>
        <time>2016-05-23T08:02:15Z</time>
      </trkpt>
      <trkpt lat="43.93966" lon="7.51735">
        <ele>273</ele>
        <time>2016-05-23T08:02:52Z</time>
      </trkpt>
      <trkpt lat="43.93981" lon="7.51753">
        <ele>274</ele>
        <time>2016-05-23T08:03:07Z</time>
      </trkpt>
      <trkpt lat="43.93984" lon="7.51755">
        <ele>274</ele>
        <time>2016-05-23T08:03:28Z</time>
      </trkpt>
      <trkpt lat="43.94076" lon="7.51835">
        <ele>270</ele>
        <time>2016-05-23T08:04:40Z</time>
      </trkpt>
      <trkpt lat="43.94076" lon="7.51836">
        <ele>271</ele>
        <time>2016-05-23T08:04:41Z</time>
      </trkpt>
      <trkpt lat="43.94355" lon="7.51995">
        <ele>163</ele>
        <time>2016-05-23T08:10:07Z</time>
      </trkpt>
      <trkpt lat="43.94355" lon="7.51997">
        <ele>161</ele>
        <time>2016-05-23T08:10:08Z</time>
      </trkpt>
      <trkpt lat="43.94414" lon="7.52013">
        <ele>146</ele>
        <time>2016-05-23T08:11:14Z</time>
      </trkpt>
      <trkpt lat="43.94424" lon="7.52031">
        <ele>130</ele>
        <time>2016-05-23T08:13:24Z</time>
      </trkpt>
      <trkpt lat="43.94447" lon="7.52059">
        <ele>93</ele>
        <time>2016-05-23T08:14:23Z</time>
      </trkpt>
      <trkpt lat="43.94447" lon="7.52059">
        <ele>95</ele>
        <time>2016-05-23T08:16:57Z</time>
      </trkpt>
      <trkpt lat="43.94455" lon="7.52008">
        <ele>233</ele>
        <time>2016-05-23T08:17:34Z</time>
      </trkpt>
      <trkpt lat="43.94435" lon="7.52">
        <ele>296</ele>
        <time>2016-05-23T08:17:47Z</time>
      </trkpt>
      <trkpt lat="43.9442" lon="7.52011">
        <ele>332</ele>
        <time>2016-05-23T08:18:25Z</time>
      </trkpt>
      <trkpt lat="43.94405" lon="7.52014">
        <ele>358</ele>
        <time>2016-05-23T08:18:58Z</time>
      </trkpt>
      <trkpt lat="43.94408" lon="7.52038">
        <ele>382</ele>
        <time>2016-05-23T08:19:56Z</time>
      </trkpt>
      <trkpt lat="43.94418" lon="7.52058">
        <ele>393</ele>
        <time>2016-05-23T08:20:58Z</time>
      </trkpt>
      <trkpt lat="43.94424" lon="7.5208">
        <ele>397</ele>
        <time>2016-05-23T08:21:56Z</time>
      </trkpt>
      <trkpt lat="43.94453" lon="7.52109">
        <ele>411</ele>
        <time>2016-05-23T08:22:41Z</time>
      </trkpt>
      <trkpt lat="43.9444" lon="7.52096">
        <ele>408</ele>
        <time>2016-05-23T08:22:56Z</time>
      </trkpt>
      <trkpt lat="43.94441" lon="7.52121">
        <ele>418</ele>
        <time>2016-05-23T08:25:39Z</time>
      </trkpt>
      <trkpt lat="43.94451" lon="7.52139">
        <ele>425</ele>
        <time>2016-05-23T08:26:06Z</time>
      </trkpt>
      <trkpt lat="43.94457" lon="7.52161">
        <ele>431</ele>
        <time>2016-05-23T08:26:39Z</time>
      </trkpt>
      <trkpt lat="43.94466" lon="7.52177">
        <ele>438</ele>
        <time>2016-05-23T08:27:34Z</time>
      </trkpt>
      <trkpt lat="43.94471" lon="7.52207">
        <ele>438</ele>
        <time>2016-05-23T08:27:48Z</time>
      </trkpt>
      <trkpt lat="43.94465" lon="7.52229">
        <ele>456</ele>
        <time>2016-05-23T08:28:41Z</time>
      </trkpt>
      <trkpt lat="43.94448" lon="7.52227">
        <ele>467</ele>
        <time>2016-05-23T08:29:28Z</time>
      </trkpt>
      <trkpt lat="43.94432" lon="7.52237">
        <ele>471</ele>
        <time>2016-05-23T08:30:10Z</time>
      </trkpt>
      <trkpt lat="43.94421" lon="7.52256">
        <ele>488</ele>
        <time>2016-05-23T08:31:15Z</time>
      </trkpt>
      <trkpt lat="43.94425" lon="7.5227">
        <ele>493</ele>
        <time>2016-05-23T08:31:58Z</time>
      </trkpt>
      <trkpt lat="43.94423" lon="7.52304">
        <ele>503</ele>
        <time>2016-05-23T08:32:44Z</time>
      </trkpt>
      <trkpt lat="43.94441" lon="7.52306">
        <ele>511</ele>
        <time>2016-05-23T08:33:04Z</time>
      </trkpt>
      <trkpt lat="43.94425" lon="7.52318">
        <ele>516</ele>
        <time>2016-05-23T08:35:15Z</time>
      </trkpt>
      <trkpt lat="43.94413" lon="7.52331">
        <ele>529</ele>
        <time>2016-05-23T08:36:41Z</time>
      </trkpt>
      <trkpt lat="43.944" lon="7.52343">
        <ele>547</ele>
        <time>2016-05-23T08:37:54Z</time>
      </trkpt>
      <trkpt lat="43.94383" lon="7.5235">
        <ele>553</ele>
        <time>2016-05-23T08:38:36Z</time>
      </trkpt>
      <trkpt lat="43.94395" lon="7.52368">
        <ele>555</ele>
        <time>2016-05-23T08:39:56Z</time>
      </trkpt>
      <trkpt lat="43.94411" lon="7.52377">
        <ele>558</ele>
        <time>2016-05-23T08:40:54Z</time>
      </trkpt>
      <trkpt lat="43.94425" lon="7.52391">
        <ele>557</ele>
        <time>2016-05-23T08:41:12Z</time>
      </trkpt>
      <trkpt lat="43.94434" lon="7.52411">
        <ele>566</ele>
        <time>2016-05-23T08:41:29Z</time>
      </trkpt>
      <trkpt lat="43.94449" lon="7.52411">
        <ele>570</ele>
        <time>2016-05-23T08:41:59Z</time>
      </trkpt>
      <trkpt lat="43.94463" lon="7.52427">
        <ele>563</ele>
        <time>2016-05-23T08:42:58Z</time>
      </trkpt>
      <trkpt lat="43.94476" lon="7.52439">
        <ele>566</ele>
        <time>2016-05-23T08:43:43Z</time>
      </trkpt>
      <trkpt lat="43.94486" lon="7.52459">
        <ele>557</ele>
        <time>2016-05-23T08:44:02Z</time>
      </trkpt>
      <trkpt lat="43.94503" lon="7.52467">
        <ele>547</ele>
        <time>2016-05-23T08:44:42Z</time>
      </trkpt>
      <trkpt lat="43.94518" lon="7.52472">
        <ele>549</ele>
        <time>2016-05-23T08:45:03Z</time>
      </trkpt>
      <trkpt lat="43.94533" lon="7.52487">
        <ele>552</ele>
        <time>2016-05-23T08:45:27Z</time>
      </trkpt>
      <trkpt lat="43.94546" lon="7.52503">
        <ele>552</ele>
        <time>2016-05-23T08:46:02Z</time>
      </trkpt>
      <trkpt lat="43.94562" lon="7.52503">
        <ele>581</ele>
        <time>2016-05-23T08:46:54Z</time>
      </trkpt>
      <trkpt lat="43.94566" lon="7.52515">
        <ele>579</ele>
        <time>2016-05-23T08:47:00Z</time>
      </trkpt>
      <trkpt lat="43.9459" lon="7.5254">
        <ele>591</ele>
        <time>2016-05-23T08:47:33Z</time>
      </trkpt>
      <trkpt lat="43.94607" lon="7.5254">
        <ele>616</ele>
        <time>2016-05-23T08:48:25Z</time>
      </trkpt>
      <trkpt lat="43.94625" lon="7.52545">
        <ele>607</ele>
        <time>2016-05-23T08:48:40Z</time>
      </trkpt>
      <trkpt lat="43.94641" lon="7.52555">
        <ele>609</ele>
        <time>2016-05-23T08:48:53Z</time>
      </trkpt>
      <trkpt lat="43.94651" lon="7.52574">
        <ele>608</ele>
        <time>2016-05-23T08:49:09Z</time>
      </trkpt>
      <trkpt lat="43.94659" lon="7.52595">
        <ele>604</ele>
        <time>2016-05-23T08:49:23Z</time>
      </trkpt>
      <trkpt lat="43.94667" lon="7.52617">
        <ele>606</ele>
        <time>2016-05-23T08:49:41Z</time>
      </trkpt>
      <trkpt lat="43.94677" lon="7.5264">
        <ele>610</ele>
        <time>2016-05-23T08:49:56Z</time>
      </trkpt>
      <trkpt lat="43.94704" lon="7.52636">
        <ele>617</ele>
        <time>2016-05-23T08:50:11Z</time>
      </trkpt>
      <trkpt lat="43.94723" lon="7.5264">
        <ele>622</ele>
        <time>2016-05-23T08:50:25Z</time>
      </trkpt>
      <trkpt lat="43.94737" lon="7.52655">
        <ele>618</ele>
        <time>2016-05-23T08:50:42Z</time>
      </trkpt>
      <trkpt lat="43.94741" lon="7.52677">
        <ele>624</ele>
        <time>2016-05-23T08:50:58Z</time>
      </trkpt>
      <trkpt lat="43.94754" lon="7.52705">
        <ele>629</ele>
        <time>2016-05-23T08:51:12Z</time>
      </trkpt>
      <trkpt lat="43.94772" lon="7.52743">
        <ele>628</ele>
        <time>2016-05-23T08:51:27Z</time>
      </trkpt>
      <trkpt lat="43.94767" lon="7.52765">
        <ele>630</ele>
        <time>2016-05-23T08:51:48Z</time>
      </trkpt>
      <trkpt lat="43.94765" lon="7.52779">
        <ele>605</ele>
        <time>2016-05-23T08:52:01Z</time>
      </trkpt>
      <trkpt lat="43.94756" lon="7.52833">
        <ele>607</ele>
        <time>2016-05-23T08:52:33Z</time>
      </trkpt>
      <trkpt lat="43.9476" lon="7.52853">
        <ele>628</ele>
        <time>2016-05-23T08:52:49Z</time>
      </trkpt>
      <trkpt lat="43.94752" lon="7.52875">
        <ele>638</ele>
        <time>2016-05-23T08:53:14Z</time>
      </trkpt>
      <trkpt lat="43.94739" lon="7.52892">
        <ele>633</ele>
        <time>2016-05-23T08:53:31Z</time>
      </trkpt>
      <trkpt lat="43.94722" lon="7.52911">
        <ele>636</ele>
        <time>2016-05-23T08:53:45Z</time>
      </trkpt>
      <trkpt lat="43.94716" lon="7.52927">
        <ele>652</ele>
        <time>2016-05-23T08:54:42Z</time>
      </trkpt>
      <trkpt lat="43.94696" lon="7.52965">
        <ele>652</ele>
        <time>2016-05-23T08:54:57Z</time>
      </trkpt>
      <trkpt lat="43.94688" lon="7.52987">
        <ele>652</ele>
        <time>2016-05-23T08:55:22Z</time>
      </trkpt>
      <trkpt lat="43.94677" lon="7.53004">
        <ele>644</ele>
        <time>2016-05-23T08:56:02Z</time>
      </trkpt>
      <trkpt lat="43.94678" lon="7.53028">
        <ele>651</ele>
        <time>2016-05-23T08:56:17Z</time>
      </trkpt>
      <trkpt lat="43.94682" lon="7.5305">
        <ele>660</ele>
        <time>2016-05-23T08:56:44Z</time>
      </trkpt>
      <trkpt lat="43.94693" lon="7.53065">
        <ele>665</ele>
        <time>2016-05-23T08:57:00Z</time>
      </trkpt>
      <trkpt lat="43.94711" lon="7.53093">
        <ele>658</ele>
        <time>2016-05-23T08:57:33Z</time>
      </trkpt>
      <trkpt lat="43.9472" lon="7.53114">
        <ele>695</ele>
        <time>2016-05-23T09:04:47Z</time>
      </trkpt>
      <trkpt lat="43.94707" lon="7.5313">
        <ele>696</ele>
        <time>2016-05-23T09:05:27Z</time>
      </trkpt>
      <trkpt lat="43.9472" lon="7.53146">
        <ele>708</ele>
        <time>2016-05-23T09:06:34Z</time>
      </trkpt>
      <trkpt lat="43.94737" lon="7.5315">
        <ele>708</ele>
        <time>2016-05-23T09:06:58Z</time>
      </trkpt>
      <trkpt lat="43.94741" lon="7.53144">
        <ele>714</ele>
        <time>2016-05-23T09:07:01Z</time>
      </trkpt>
      <trkpt lat="43.94761" lon="7.53128">
        <ele>721</ele>
        <time>2016-05-23T09:07:35Z</time>
      </trkpt>
      <trkpt lat="43.94753" lon="7.53107">
        <ele>696</ele>
        <time>2016-05-23T09:08:21Z</time>
      </trkpt>
      <trkpt lat="43.9475" lon="7.53085">
        <ele>692</ele>
        <time>2016-05-23T09:09:02Z</time>
      </trkpt>
      <trkpt lat="43.94753" lon="7.53057">
        <ele>681</ele>
        <time>2016-05-23T09:09:16Z</time>
      </trkpt>
      <trkpt lat="43.9477" lon="7.53049">
        <ele>674</ele>
        <time>2016-05-23T09:10:11Z</time>
      </trkpt>
      <trkpt lat="43.94788" lon="7.53047">
        <ele>672</ele>
        <time>2016-05-23T09:10:35Z</time>
      </trkpt>
      <trkpt lat="43.94805" lon="7.53045">
        <ele>667</ele>
        <time>2016-05-23T09:10:52Z</time>
      </trkpt>
      <trkpt lat="43.94828" lon="7.53041">
        <ele>664</ele>
        <time>2016-05-23T09:11:06Z</time>
      </trkpt>
      <trkpt lat="43.94849" lon="7.53038">
        <ele>663</ele>
        <time>2016-05-23T09:11:21Z</time>
      </trkpt>
      <trkpt lat="43.94866" lon="7.53033">
        <ele>663</ele>
        <time>2016-05-23T09:11:41Z</time>
      </trkpt>
      <trkpt lat="43.94883" lon="7.5303">
        <ele>659</ele>
        <time>2016-05-23T09:11:57Z</time>
      </trkpt>
      <trkpt lat="43.94888" lon="7.53027">
        <ele>661</ele>
        <time>2016-05-23T09:12:01Z</time>
      </trkpt>
      <trkpt lat="43.94924" lon="7.53023">
        <ele>631</ele>
        <time>2016-05-23T09:12:35Z</time>
      </trkpt>
      <trkpt lat="43.94929" lon="7.53001">
        <ele>639</ele>
        <time>2016-05-23T09:13:02Z</time>
      </trkpt>
      <trkpt lat="43.94926" lon="7.52978">
        <ele>652</ele>
        <time>2016-05-23T09:14:17Z</time>
      </trkpt>
      <trkpt lat="43.94931" lon="7.52952">
        <ele>653</ele>
        <time>2016-05-23T09:14:31Z</time>
      </trkpt>
      <trkpt lat="43.94943" lon="7.52935">
        <ele>653</ele>
        <time>2016-05-23T09:14:47Z</time>
      </trkpt>
      <trkpt lat="43.94952" lon="7.52914">
        <ele>657</ele>
        <time>2016-05-23T09:15:06Z</time>
      </trkpt>
      <trkpt lat="43.94959" lon="7.52883">
        <ele>660</ele>
        <time>2016-05-23T09:15:20Z</time>
      </trkpt>
      <trkpt lat="43.94968" lon="7.52862">
        <ele>652</ele>
        <time>2016-05-23T09:15:45Z</time>
      </trkpt>
      <trkpt lat="43.94973" lon="7.52839">
        <ele>654</ele>
        <time>2016-05-23T09:16:01Z</time>
      </trkpt>
      <trkpt lat="43.94979" lon="7.52816">
        <ele>658</ele>
        <time>2016-05-23T09:16:17Z</time>
      </trkpt>
      <trkpt lat="43.94978" lon="7.52792">
        <ele>660</ele>
        <time>2016-05-23T09:16:35Z</time>
      </trkpt>
      <trkpt lat="43.94978" lon="7.52767">
        <ele>661</ele>
        <time>2016-05-23T09:16:49Z</time>
      </trkpt>
      <trkpt lat="43.94978" lon="7.52746">
        <ele>657</ele>
        <time>2016-05-23T09:17:03Z</time>
      </trkpt>
      <trkpt lat="43.94982" lon="7.52713">
        <ele>678</ele>
        <time>2016-05-23T09:17:37Z</time>
      </trkpt>
      <trkpt lat="43.94982" lon="7.52736">
        <ele>662</ele>
        <time>2016-05-23T09:17:53Z</time>
      </trkpt>
      <trkpt lat="43.9498" lon="7.52711">
        <ele>662</ele>
        <time>2016-05-23T09:18:47Z</time>
      </trkpt>
      <trkpt lat="43.9498" lon="7.52688">
        <ele>659</ele>
        <time>2016-05-23T09:19:16Z</time>
      </trkpt>
      <trkpt lat="43.94977" lon="7.52664">
        <ele>663</ele>
        <time>2016-05-23T09:20:18Z</time>
      </trkpt>
      <trkpt lat="43.94975" lon="7.52639">
        <ele>665</ele>
        <time>2016-05-23T09:21:11Z</time>
      </trkpt>
      <trkpt lat="43.94989" lon="7.52653">
        <ele>666</ele>
        <time>2016-05-23T09:30:50Z</time>
      </trkpt>
      <trkpt lat="43.95006" lon="7.52659">
        <ele>660</ele>
        <time>2016-05-23T09:31:09Z</time>
      </trkpt>
      <trkpt lat="43.95027" lon="7.52667">
        <ele>666</ele>
        <time>2016-05-23T09:31:23Z</time>
      </trkpt>
      <trkpt lat="43.95045" lon="7.52666">
        <ele>672</ele>
        <time>2016-05-23T09:31:38Z</time>
      </trkpt>
      <trkpt lat="43.95066" lon="7.52671">
        <ele>673</ele>
        <time>2016-05-23T09:31:52Z</time>
      </trkpt>
      <trkpt lat="43.95082" lon="7.52684">
        <ele>672</ele>
        <time>2016-05-23T09:32:06Z</time>
      </trkpt>
      <trkpt lat="43.95102" lon="7.52694">
        <ele>672</ele>
        <time>2016-05-23T09:32:21Z</time>
      </trkpt>
      <trkpt lat="43.95121" lon="7.52698">
        <ele>668</ele>
        <time>2016-05-23T09:32:35Z</time>
      </trkpt>
      <trkpt lat="43.95137" lon="7.52694">
        <ele>666</ele>
        <time>2016-05-23T09:32:51Z</time>
      </trkpt>
      <trkpt lat="43.95152" lon="7.52693">
        <ele>665</ele>
        <time>2016-05-23T09:33:05Z</time>
      </trkpt>
      <trkpt lat="43.95171" lon="7.52694">
        <ele>662</ele>
        <time>2016-05-23T09:33:20Z</time>
      </trkpt>
      <trkpt lat="43.95188" lon="7.52692">
        <ele>659</ele>
        <time>2016-05-23T09:33:34Z</time>
      </trkpt>
      <trkpt lat="43.95205" lon="7.52691">
        <ele>655</ele>
        <time>2016-05-23T09:33:51Z</time>
      </trkpt>
      <trkpt lat="43.95221" lon="7.5269">
        <ele>651</ele>
        <time>2016-05-23T09:34:05Z</time>
      </trkpt>
      <trkpt lat="43.95239" lon="7.52687">
        <ele>650</ele>
        <time>2016-05-23T09:34:28Z</time>
      </trkpt>
      <trkpt lat="43.9526" lon="7.52696">
        <ele>650</ele>
        <time>2016-05-23T09:34:43Z</time>
      </trkpt>
      <trkpt lat="43.95277" lon="7.52698">
        <ele>647</ele>
        <time>2016-05-23T09:35:02Z</time>
      </trkpt>
      <trkpt lat="43.95294" lon="7.52699">
        <ele>649</ele>
        <time>2016-05-23T09:35:20Z</time>
      </trkpt>
      <trkpt lat="43.95318" lon="7.52706">
        <ele>652</ele>
        <time>2016-05-23T09:35:35Z</time>
      </trkpt>
      <trkpt lat="43.9534" lon="7.52712">
        <ele>653</ele>
        <time>2016-05-23T09:35:50Z</time>
      </trkpt>
      <trkpt lat="43.95354" lon="7.52727">
        <ele>653</ele>
        <time>2016-05-23T09:36:12Z</time>
      </trkpt>
      <trkpt lat="43.9537" lon="7.52729">
        <ele>649</ele>
        <time>2016-05-23T09:36:50Z</time>
      </trkpt>
      <trkpt lat="43.95385" lon="7.52741">
        <ele>641</ele>
        <time>2016-05-23T09:37:07Z</time>
      </trkpt>
      <trkpt lat="43.95401" lon="7.52745">
        <ele>636</ele>
        <time>2016-05-23T09:37:25Z</time>
      </trkpt>
      <trkpt lat="43.95419" lon="7.52741">
        <ele>631</ele>
        <time>2016-05-23T09:37:55Z</time>
      </trkpt>
      <trkpt lat="43.95435" lon="7.52746">
        <ele>625</ele>
        <time>2016-05-23T09:41:00Z</time>
      </trkpt>
      <trkpt lat="43.95446" lon="7.52763">
        <ele>627</ele>
        <time>2016-05-23T09:41:24Z</time>
      </trkpt>
      <trkpt lat="43.95459" lon="7.52777">
        <ele>632</ele>
        <time>2016-05-23T09:42:15Z</time>
      </trkpt>
      <trkpt lat="43.95458" lon="7.52795">
        <ele>639</ele>
        <time>2016-05-23T09:43:11Z</time>
      </trkpt>
      <trkpt lat="43.95472" lon="7.52832">
        <ele>642</ele>
        <time>2016-05-23T09:43:24Z</time>
      </trkpt>
      <trkpt lat="43.95487" lon="7.52838">
        <ele>645</ele>
        <time>2016-05-23T09:44:06Z</time>
      </trkpt>
      <trkpt lat="43.95503" lon="7.52844">
        <ele>646</ele>
        <time>2016-05-23T09:44:34Z</time>
      </trkpt>
      <trkpt lat="43.95521" lon="7.52842">
        <ele>643</ele>
        <time>2016-05-23T09:44:51Z</time>
      </trkpt>
      <trkpt lat="43.95534" lon="7.52827">
        <ele>645</ele>
        <time>2016-05-23T09:46:04Z</time>
      </trkpt>
      <trkpt lat="43.95547" lon="7.5281">
        <ele>648</ele>
        <time>2016-05-23T09:46:22Z</time>
      </trkpt>
      <trkpt lat="43.95559" lon="7.52792">
        <ele>649</ele>
        <time>2016-05-23T09:46:38Z</time>
      </trkpt>
      <trkpt lat="43.95567" lon="7.52773">
        <ele>648</ele>
        <time>2016-05-23T09:46:52Z</time>
      </trkpt>
      <trkpt lat="43.95576" lon="7.52753">
        <ele>643</ele>
        <time>2016-05-23T09:47:16Z</time>
      </trkpt>
      <trkpt lat="43.95589" lon="7.52736">
        <ele>637</ele>
        <time>2016-05-23T09:47:43Z</time>
      </trkpt>
      <trkpt lat="43.95603" lon="7.52722">
        <ele>636</ele>
        <time>2016-05-23T09:47:59Z</time>
      </trkpt>
      <trkpt lat="43.95616" lon="7.52706">
        <ele>636</ele>
        <time>2016-05-23T09:48:15Z</time>
      </trkpt>
      <trkpt lat="43.95633" lon="7.52701">
        <ele>637</ele>
        <time>2016-05-23T09:48:39Z</time>
      </trkpt>
      <trkpt lat="43.95649" lon="7.52703">
        <ele>637</ele>
        <time>2016-05-23T09:49:04Z</time>
      </trkpt>
      <trkpt lat="43.95665" lon="7.52709">
        <ele>640</ele>
        <time>2016-05-23T09:49:24Z</time>
      </trkpt>
      <trkpt lat="43.95682" lon="7.52705">
        <ele>638</ele>
        <time>2016-05-23T09:49:39Z</time>
      </trkpt>
      <trkpt lat="43.95697" lon="7.52717">
        <ele>625</ele>
        <time>2016-05-23T09:50:00Z</time>
      </trkpt>
      <trkpt lat="43.95713" lon="7.52706">
        <ele>623</ele>
        <time>2016-05-23T09:50:18Z</time>
      </trkpt>
      <trkpt lat="43.95729" lon="7.527">
        <ele>628</ele>
        <time>2016-05-23T09:50:40Z</time>
      </trkpt>
      <trkpt lat="43.95746" lon="7.52709">
        <ele>624</ele>
        <time>2016-05-23T09:51:00Z</time>
      </trkpt>
      <trkpt lat="43.95759" lon="7.52723">
        <ele>619</ele>
        <time>2016-05-23T09:55:40Z</time>
      </trkpt>
      <trkpt lat="43.95776" lon="7.52731">
        <ele>620</ele>
        <time>2016-05-23T09:56:01Z</time>
      </trkpt>
      <trkpt lat="43.95789" lon="7.52746">
        <ele>625</ele>
        <time>2016-05-23T09:58:13Z</time>
      </trkpt>
      <trkpt lat="43.95799" lon="7.52768">
        <ele>631</ele>
        <time>2016-05-23T09:58:27Z</time>
      </trkpt>
      <trkpt lat="43.95814" lon="7.52783">
        <ele>623</ele>
        <time>2016-05-23T09:58:41Z</time>
      </trkpt>
      <trkpt lat="43.95824" lon="7.52801">
        <ele>627</ele>
        <time>2016-05-23T09:59:14Z</time>
      </trkpt>
      <trkpt lat="43.95831" lon="7.52823">
        <ele>628</ele>
        <time>2016-05-23T09:59:29Z</time>
      </trkpt>
      <trkpt lat="43.95836" lon="7.52856">
        <ele>635</ele>
        <time>2016-05-23T09:59:43Z</time>
      </trkpt>
      <trkpt lat="43.95835" lon="7.52879">
        <ele>634</ele>
        <time>2016-05-23T10:00:04Z</time>
      </trkpt>
      <trkpt lat="43.95831" lon="7.52906">
        <ele>637</ele>
        <time>2016-05-23T10:00:19Z</time>
      </trkpt>
      <trkpt lat="43.95828" lon="7.52934">
        <ele>632</ele>
        <time>2016-05-23T10:00:33Z</time>
      </trkpt>
      <trkpt lat="43.95836" lon="7.52956">
        <ele>633</ele>
        <time>2016-05-23T10:00:49Z</time>
      </trkpt>
      <trkpt lat="43.95837" lon="7.52979">
        <ele>632</ele>
        <time>2016-05-23T10:01:43Z</time>
      </trkpt>
      <trkpt lat="43.95831" lon="7.53002">
        <ele>632</ele>
        <time>2016-05-23T10:03:15Z</time>
      </trkpt>
      <trkpt lat="43.95832" lon="7.53026">
        <ele>639</ele>
        <time>2016-05-23T10:04:30Z</time>
      </trkpt>
      <trkpt lat="43.95849" lon="7.53022">
        <ele>629</ele>
        <time>2016-05-23T10:05:15Z</time>
      </trkpt>
      <trkpt lat="43.9586" lon="7.53004">
        <ele>610</ele>
        <time>2016-05-23T10:06:15Z</time>
      </trkpt>
      <trkpt lat="43.95877" lon="7.53005">
        <ele>602</ele>
        <time>2016-05-23T10:06:53Z</time>
      </trkpt>
      <trkpt lat="43.95893" lon="7.53007">
        <ele>594</ele>
        <time>2016-05-23T10:08:23Z</time>
      </trkpt>
      <trkpt lat="43.95904" lon="7.53023">
        <ele>575</ele>
        <time>2016-05-23T10:08:50Z</time>
      </trkpt>
      <trkpt lat="43.95922" lon="7.53025">
        <ele>565</ele>
        <time>2016-05-23T10:09:11Z</time>
      </trkpt>
      <trkpt lat="43.95939" lon="7.53018">
        <ele>553</ele>
        <time>2016-05-23T10:09:47Z</time>
      </trkpt>
      <trkpt lat="43.95957" lon="7.53019">
        <ele>552</ele>
        <time>2016-05-23T10:10:08Z</time>
      </trkpt>
      <trkpt lat="43.95972" lon="7.53016">
        <ele>546</ele>
        <time>2016-05-23T10:10:37Z</time>
      </trkpt>
      <trkpt lat="43.95989" lon="7.53021">
        <ele>541</ele>
        <time>2016-05-23T10:11:16Z</time>
      </trkpt>
      <trkpt lat="43.96007" lon="7.53014">
        <ele>542</ele>
        <time>2016-05-23T10:11:31Z</time>
      </trkpt>
      <trkpt lat="43.96023" lon="7.53007">
        <ele>543</ele>
        <time>2016-05-23T10:11:54Z</time>
      </trkpt>
      <trkpt lat="43.9604" lon="7.53004">
        <ele>536</ele>
        <time>2016-05-23T10:12:22Z</time>
      </trkpt>
      <trkpt lat="43.96058" lon="7.52994">
        <ele>532</ele>
        <time>2016-05-23T10:12:37Z</time>
      </trkpt>
      <trkpt lat="43.96073" lon="7.52993">
        <ele>531</ele>
        <time>2016-05-23T10:12:55Z</time>
      </trkpt>
      <trkpt lat="43.96094" lon="7.52997">
        <ele>528</ele>
        <time>2016-05-23T10:13:10Z</time>
      </trkpt>
      <trkpt lat="43.96112" lon="7.52993">
        <ele>530</ele>
        <time>2016-05-23T10:13:48Z</time>
      </trkpt>
      <trkpt lat="43.96132" lon="7.52994">
        <ele>528</ele>
        <time>2016-05-23T10:14:02Z</time>
      </trkpt>
      <trkpt lat="43.9615" lon="7.52992">
        <ele>531</ele>
        <time>2016-05-23T10:14:28Z</time>
      </trkpt>
      <trkpt lat="43.96165" lon="7.52984">
        <ele>528</ele>
        <time>2016-05-23T10:14:49Z</time>
      </trkpt>
      <trkpt lat="43.96182" lon="7.52988">
        <ele>526</ele>
        <time>2016-05-23T10:15:07Z</time>
      </trkpt>
      <trkpt lat="43.96204" lon="7.52987">
        <ele>526</ele>
        <time>2016-05-23T10:15:21Z</time>
      </trkpt>
      <trkpt lat="43.96221" lon="7.52986">
        <ele>521</ele>
        <time>2016-05-23T10:15:41Z</time>
      </trkpt>
      <trkpt lat="43.96238" lon="7.52992">
        <ele>515</ele>
        <time>2016-05-23T10:15:57Z</time>
      </trkpt>
      <trkpt lat="43.96254" lon="7.53">
        <ele>511</ele>
        <time>2016-05-23T10:16:15Z</time>
      </trkpt>
      <trkpt lat="43.9627" lon="7.53012">
        <ele>509</ele>
        <time>2016-05-23T10:16:42Z</time>
      </trkpt>
      <trkpt lat="43.96274" lon="7.53036">
        <ele>507</ele>
        <time>2016-05-23T10:17:09Z</time>
      </trkpt>
      <trkpt lat="43.9628" lon="7.53058">
        <ele>506</ele>
        <time>2016-05-23T10:17:27Z</time>
      </trkpt>
      <trkpt lat="43.96289" lon="7.53079">
        <ele>505</ele>
        <time>2016-05-23T10:17:46Z</time>
      </trkpt>
      <trkpt lat="43.96295" lon="7.53101">
        <ele>500</ele>
        <time>2016-05-23T10:18:11Z</time>
      </trkpt>
      <trkpt lat="43.963" lon="7.53125">
        <ele>502</ele>
        <time>2016-05-23T10:18:26Z</time>
      </trkpt>
      <trkpt lat="43.96309" lon="7.53145">
        <ele>497</ele>
        <time>2016-05-23T10:18:44Z</time>
      </trkpt>
      <trkpt lat="43.96318" lon="7.53165">
        <ele>490</ele>
        <time>2016-05-23T10:19:05Z</time>
      </trkpt>
      <trkpt lat="43.96326" lon="7.53183">
        <ele>484</ele>
        <time>2016-05-23T10:19:26Z</time>
      </trkpt>
      <trkpt lat="43.96337" lon="7.53202">
        <ele>481</ele>
        <time>2016-05-23T10:19:49Z</time>
      </trkpt>
      <trkpt lat="43.96346" lon="7.53223">
        <ele>474</ele>
        <time>2016-05-23T10:20:06Z</time>
      </trkpt>
      <trkpt lat="43.96355" lon="7.53245">
        <ele>472</ele>
        <time>2016-05-23T10:20:22Z</time>
      </trkpt>
      <trkpt lat="43.96363" lon="7.53266">
        <ele>464</ele>
        <time>2016-05-23T10:20:50Z</time>
      </trkpt>
      <trkpt lat="43.96373" lon="7.53284">
        <ele>459</ele>
        <time>2016-05-23T10:21:10Z</time>
      </trkpt>
      <trkpt lat="43.96386" lon="7.53299">
        <ele>460</ele>
        <time>2016-05-23T10:21:30Z</time>
      </trkpt>
      <trkpt lat="43.96397" lon="7.53313">
        <ele>457</ele>
        <time>2016-05-23T10:21:48Z</time>
      </trkpt>
      <trkpt lat="43.96404" lon="7.53336">
        <ele>445</ele>
        <time>2016-05-23T10:22:07Z</time>
      </trkpt>
      <trkpt lat="43.96419" lon="7.53324">
        <ele>428</ele>
        <time>2016-05-23T10:23:03Z</time>
      </trkpt>
      <trkpt lat="43.96423" lon="7.533">
        <ele>422</ele>
        <time>2016-05-23T10:29:53Z</time>
      </trkpt>
      <trkpt lat="43.96439" lon="7.53311">
        <ele>435</ele>
        <time>2016-05-23T10:30:54Z</time>
      </trkpt>
      <trkpt lat="43.96457" lon="7.53309">
        <ele>440</ele>
        <time>2016-05-23T10:32:16Z</time>
      </trkpt>
      <trkpt lat="43.96472" lon="7.53319">
        <ele>448</ele>
        <time>2016-05-23T10:33:21Z</time>
      </trkpt>
      <trkpt lat="43.96463" lon="7.53336">
        <ele>449</ele>
        <time>2016-05-23T10:34:10Z</time>
      </trkpt>
      <trkpt lat="43.9648" lon="7.53337">
        <ele>477</ele>
        <time>2016-05-23T10:35:24Z</time>
      </trkpt>
      <trkpt lat="43.96497" lon="7.53341">
        <ele>479</ele>
        <time>2016-05-23T10:36:11Z</time>
      </trkpt>
      <trkpt lat="43.96513" lon="7.53352">
        <ele>485</ele>
        <time>2016-05-23T10:37:12Z</time>
      </trkpt>
      <trkpt lat="43.96529" lon="7.53347">
        <ele>490</ele>
        <time>2016-05-23T10:37:59Z</time>
      </trkpt>
      <trkpt lat="43.96545" lon="7.53349">
        <ele>503</ele>
        <time>2016-05-23T10:38:52Z</time>
      </trkpt>
      <trkpt lat="43.96562" lon="7.53346">
        <ele>510</ele>
        <time>2016-05-23T10:39:21Z</time>
      </trkpt>
      <trkpt lat="43.96579" lon="7.53339">
        <ele>510</ele>
        <time>2016-05-23T10:39:49Z</time>
      </trkpt>
      <trkpt lat="43.96595" lon="7.53332">
        <ele>508</ele>
        <time>2016-05-23T10:41:10Z</time>
      </trkpt>
      <trkpt lat="43.96613" lon="7.5333">
        <ele>505</ele>
        <time>2016-05-23T10:41:36Z</time>
      </trkpt>
      <trkpt lat="43.96628" lon="7.53341">
        <ele>506</ele>
        <time>2016-05-23T10:41:59Z</time>
      </trkpt>
      <trkpt lat="43.96614" lon="7.53328">
        <ele>508</ele>
        <time>2016-05-23T10:42:59Z</time>
      </trkpt>
      <trkpt lat="43.96598" lon="7.53326">
        <ele>514</ele>
        <time>2016-05-23T10:43:36Z</time>
      </trkpt>
      <trkpt lat="43.96598" lon="7.53326">
        <ele>514</ele>
        <time>2016-05-23T10:43:37Z</time>
      </trkpt>
      <trkpt lat="43.96599" lon="7.53304">
        <ele>576</ele>
        <time>2016-05-23T11:17:45Z</time>
      </trkpt>
      <trkpt lat="43.96571" lon="7.53337">
        <ele>477</ele>
        <time>2016-05-23T11:17:55Z</time>
      </trkpt>
      <trkpt lat="43.96591" lon="7.53325">
        <ele>506</ele>
        <time>2016-05-23T11:18:26Z</time>
      </trkpt>
      <trkpt lat="43.96601" lon="7.53346">
        <ele>476</ele>
        <time>2016-05-23T11:19:03Z</time>
      </trkpt>
      <trkpt lat="43.96614" lon="7.53372">
        <ele>470</ele>
        <time>2016-05-23T11:19:17Z</time>
      </trkpt>
      <trkpt lat="43.96622" lon="7.53394">
        <ele>468</ele>
        <time>2016-05-23T11:19:36Z</time>
      </trkpt>
      <trkpt lat="43.96636" lon="7.53402">
        <ele>477</ele>
        <time>2016-05-23T11:19:53Z</time>
      </trkpt>
      <trkpt lat="43.96666" lon="7.53422">
        <ele>491</ele>
        <time>2016-05-23T11:20:08Z</time>
      </trkpt>
      <trkpt lat="43.96666" lon="7.53447">
        <ele>483</ele>
        <time>2016-05-23T11:20:23Z</time>
      </trkpt>
      <trkpt lat="43.96678" lon="7.53469">
        <ele>485</ele>
        <time>2016-05-23T11:20:38Z</time>
      </trkpt>
      <trkpt lat="43.96694" lon="7.53471">
        <ele>477</ele>
        <time>2016-05-23T11:20:56Z</time>
      </trkpt>
      <trkpt lat="43.96709" lon="7.53469">
        <ele>482</ele>
        <time>2016-05-23T11:21:12Z</time>
      </trkpt>
      <trkpt lat="43.96724" lon="7.53473">
        <ele>484</ele>
        <time>2016-05-23T11:21:28Z</time>
      </trkpt>
      <trkpt lat="43.96715" lon="7.53452">
        <ele>462</ele>
        <time>2016-05-23T11:22:09Z</time>
      </trkpt>
      <trkpt lat="43.96714" lon="7.53429">
        <ele>457</ele>
        <time>2016-05-23T11:22:23Z</time>
      </trkpt>
      <trkpt lat="43.96712" lon="7.53397">
        <ele>454</ele>
        <time>2016-05-23T11:22:37Z</time>
      </trkpt>
      <trkpt lat="43.96729" lon="7.53397">
        <ele>449</ele>
        <time>2016-05-23T11:26:14Z</time>
      </trkpt>
      <trkpt lat="43.96745" lon="7.53412">
        <ele>450</ele>
        <time>2016-05-23T11:26:29Z</time>
      </trkpt>
      <trkpt lat="43.9676" lon="7.53407">
        <ele>428</ele>
        <time>2016-05-23T11:27:34Z</time>
      </trkpt>
      <trkpt lat="43.96772" lon="7.53421">
        <ele>423</ele>
        <time>2016-05-23T11:28:04Z</time>
      </trkpt>
      <trkpt lat="43.96778" lon="7.53445">
        <ele>417</ele>
        <time>2016-05-23T11:28:27Z</time>
      </trkpt>
      <trkpt lat="43.9679" lon="7.53461">
        <ele>414</ele>
        <time>2016-05-23T11:28:44Z</time>
      </trkpt>
      <trkpt lat="43.96802" lon="7.53478">
        <ele>408</ele>
        <time>2016-05-23T11:29:13Z</time>
      </trkpt>
      <trkpt lat="43.96809" lon="7.53498">
        <ele>406</ele>
        <time>2016-05-23T11:29:33Z</time>
      </trkpt>
      <trkpt lat="43.96824" lon="7.53514">
        <ele>401</ele>
        <time>2016-05-23T11:29:47Z</time>
      </trkpt>
      <trkpt lat="43.96841" lon="7.53517">
        <ele>394</ele>
        <time>2016-05-23T11:30:09Z</time>
      </trkpt>
      <trkpt lat="43.96842" lon="7.5354">
        <ele>385</ele>
        <time>2016-05-23T11:30:25Z</time>
      </trkpt>
      <trkpt lat="43.96852" lon="7.53559">
        <ele>383</ele>
        <time>2016-05-23T11:30:42Z</time>
      </trkpt>
      <trkpt lat="43.96865" lon="7.53575">
        <ele>382</ele>
        <time>2016-05-23T11:30:57Z</time>
      </trkpt>
      <trkpt lat="43.96888" lon="7.53596">
        <ele>389</ele>
        <time>2016-05-23T11:31:11Z</time>
      </trkpt>
      <trkpt lat="43.96897" lon="7.53614">
        <ele>379</ele>
        <time>2016-05-23T11:31:31Z</time>
      </trkpt>
      <trkpt lat="43.96906" lon="7.53634">
        <ele>373</ele>
        <time>2016-05-23T11:31:50Z</time>
      </trkpt>
      <trkpt lat="43.96914" lon="7.53655">
        <ele>367</ele>
        <time>2016-05-23T11:32:05Z</time>
      </trkpt>
      <trkpt lat="43.96926" lon="7.53672">
        <ele>366</ele>
        <time>2016-05-23T11:32:20Z</time>
      </trkpt>
      <trkpt lat="43.96935" lon="7.53694">
        <ele>363</ele>
        <time>2016-05-23T11:32:38Z</time>
      </trkpt>
      <trkpt lat="43.96942" lon="7.53715">
        <ele>349</ele>
        <time>2016-05-23T11:33:02Z</time>
      </trkpt>
      <trkpt lat="43.96963" lon="7.53739">
        <ele>354</ele>
        <time>2016-05-23T11:33:16Z</time>
      </trkpt>
      <trkpt lat="43.96973" lon="7.53761">
        <ele>349</ele>
        <time>2016-05-23T11:33:30Z</time>
      </trkpt>
      <trkpt lat="43.96984" lon="7.53779">
        <ele>347</ele>
        <time>2016-05-23T11:33:45Z</time>
      </trkpt>
      <trkpt lat="43.96992" lon="7.53808">
        <ele>351</ele>
        <time>2016-05-23T11:33:59Z</time>
      </trkpt>
      <trkpt lat="43.97006" lon="7.53822">
        <ele>345</ele>
        <time>2016-05-23T11:34:21Z</time>
      </trkpt>
      <trkpt lat="43.97006" lon="7.53829">
        <ele>341</ele>
        <time>2016-05-23T11:34:25Z</time>
      </trkpt>
      <trkpt lat="43.97038" lon="7.53881">
        <ele>358</ele>
        <time>2016-05-23T11:34:59Z</time>
      </trkpt>
      <trkpt lat="43.97048" lon="7.53901">
        <ele>345</ele>
        <time>2016-05-23T11:35:18Z</time>
      </trkpt>
      <trkpt lat="43.97059" lon="7.53919">
        <ele>339</ele>
        <time>2016-05-23T11:35:33Z</time>
      </trkpt>
      <trkpt lat="43.97068" lon="7.53937">
        <ele>339</ele>
        <time>2016-05-23T11:35:49Z</time>
      </trkpt>
      <trkpt lat="43.97081" lon="7.53953">
        <ele>341</ele>
        <time>2016-05-23T11:36:08Z</time>
      </trkpt>
      <trkpt lat="43.97095" lon="7.53966">
        <ele>340</ele>
        <time>2016-05-23T11:36:26Z</time>
      </trkpt>
      <trkpt lat="43.97111" lon="7.53974">
        <ele>340</ele>
        <time>2016-05-23T11:36:44Z</time>
      </trkpt>
      <trkpt lat="43.97122" lon="7.53993">
        <ele>347</ele>
        <time>2016-05-23T11:38:56Z</time>
      </trkpt>
      <trkpt lat="43.97129" lon="7.54016">
        <ele>351</ele>
        <time>2016-05-23T11:39:18Z</time>
      </trkpt>
      <trkpt lat="43.97134" lon="7.54023">
        <ele>349</ele>
        <time>2016-05-23T11:39:26Z</time>
      </trkpt>
      <trkpt lat="43.97151" lon="7.54033">
        <ele>328</ele>
        <time>2016-05-23T11:39:59Z</time>
      </trkpt>
      <trkpt lat="43.97186" lon="7.54037">
        <ele>349</ele>
        <time>2016-05-23T11:40:14Z</time>
      </trkpt>
      <trkpt lat="43.97196" lon="7.54056">
        <ele>348</ele>
        <time>2016-05-23T11:40:29Z</time>
      </trkpt>
      <trkpt lat="43.97206" lon="7.54076">
        <ele>352</ele>
        <time>2016-05-23T11:40:48Z</time>
      </trkpt>
      <trkpt lat="43.97218" lon="7.54091">
        <ele>349</ele>
        <time>2016-05-23T11:41:05Z</time>
      </trkpt>
      <trkpt lat="43.97235" lon="7.54097">
        <ele>356</ele>
        <time>2016-05-23T11:41:18Z</time>
      </trkpt>
      <trkpt lat="43.9725" lon="7.5411">
        <ele>352</ele>
        <time>2016-05-23T11:41:33Z</time>
      </trkpt>
      <trkpt lat="43.9727" lon="7.54117">
        <ele>356</ele>
        <time>2016-05-23T11:41:48Z</time>
      </trkpt>
      <trkpt lat="43.97287" lon="7.54118">
        <ele>353</ele>
        <time>2016-05-23T11:42:02Z</time>
      </trkpt>
      <trkpt lat="43.97305" lon="7.5412">
        <ele>354</ele>
        <time>2016-05-23T11:42:16Z</time>
      </trkpt>
      <trkpt lat="43.97324" lon="7.54125">
        <ele>355</ele>
        <time>2016-05-23T11:42:31Z</time>
      </trkpt>
      <trkpt lat="43.97343" lon="7.5413">
        <ele>357</ele>
        <time>2016-05-23T11:42:46Z</time>
      </trkpt>
      <trkpt lat="43.97361" lon="7.54129">
        <ele>355</ele>
        <time>2016-05-23T11:43:02Z</time>
      </trkpt>
      <trkpt lat="43.97381" lon="7.54131">
        <ele>356</ele>
        <time>2016-05-23T11:43:17Z</time>
      </trkpt>
      <trkpt lat="43.97396" lon="7.5412">
        <ele>360</ele>
        <time>2016-05-23T11:43:31Z</time>
      </trkpt>
      <trkpt lat="43.97412" lon="7.54112">
        <ele>358</ele>
        <time>2016-05-23T11:43:47Z</time>
      </trkpt>
      <trkpt lat="43.97429" lon="7.54111">
        <ele>351</ele>
        <time>2016-05-23T11:44:08Z</time>
      </trkpt>
      <trkpt lat="43.97451" lon="7.5411">
        <ele>355</ele>
        <time>2016-05-23T11:44:22Z</time>
      </trkpt>
      <trkpt lat="43.97454" lon="7.54106">
        <ele>354</ele>
        <time>2016-05-23T11:44:27Z</time>
      </trkpt>
      <trkpt lat="43.97465" lon="7.54057">
        <ele>352</ele>
        <time>2016-05-23T11:45:00Z</time>
      </trkpt>
      <trkpt lat="43.97471" lon="7.54083">
        <ele>332</ele>
        <time>2016-05-23T11:45:14Z</time>
      </trkpt>
      <trkpt lat="43.9748" lon="7.54066">
        <ele>341</ele>
        <time>2016-05-23T11:46:43Z</time>
      </trkpt>
      <trkpt lat="43.97498" lon="7.54065">
        <ele>342</ele>
        <time>2016-05-23T11:46:59Z</time>
      </trkpt>
      <trkpt lat="43.97498" lon="7.5409">
        <ele>349</ele>
        <time>2016-05-23T11:50:12Z</time>
      </trkpt>
      <trkpt lat="43.97489" lon="7.54111">
        <ele>350</ele>
        <time>2016-05-23T11:50:33Z</time>
      </trkpt>
      <trkpt lat="43.97484" lon="7.54133">
        <ele>362</ele>
        <time>2016-05-23T11:51:17Z</time>
      </trkpt>
      <trkpt lat="43.97486" lon="7.54156">
        <ele>369</ele>
        <time>2016-05-23T11:51:57Z</time>
      </trkpt>
      <trkpt lat="43.97487" lon="7.5418">
        <ele>366</ele>
        <time>2016-05-23T11:52:34Z</time>
      </trkpt>
      <trkpt lat="43.97492" lon="7.54204">
        <ele>375</ele>
        <time>2016-05-23T11:53:05Z</time>
      </trkpt>
      <trkpt lat="43.97487" lon="7.54226">
        <ele>385</ele>
        <time>2016-05-23T11:53:36Z</time>
      </trkpt>
      <trkpt lat="43.97482" lon="7.54249">
        <ele>395</ele>
        <time>2016-05-23T11:54:05Z</time>
      </trkpt>
      <trkpt lat="43.97485" lon="7.54271">
        <ele>414</ele>
        <time>2016-05-23T11:55:09Z</time>
      </trkpt>
      <trkpt lat="43.97478" lon="7.54291">
        <ele>411</ele>
        <time>2016-05-23T11:55:45Z</time>
      </trkpt>
      <trkpt lat="43.97481" lon="7.54316">
        <ele>414</ele>
        <time>2016-05-23T11:56:09Z</time>
      </trkpt>
      <trkpt lat="43.9749" lon="7.54337">
        <ele>423</ele>
        <time>2016-05-23T11:57:03Z</time>
      </trkpt>
      <trkpt lat="43.97501" lon="7.54354">
        <ele>430</ele>
        <time>2016-05-23T11:57:56Z</time>
      </trkpt>
      <trkpt lat="43.97507" lon="7.54376">
        <ele>441</ele>
        <time>2016-05-23T12:02:01Z</time>
      </trkpt>
      <trkpt lat="43.97494" lon="7.54393">
        <ele>441</ele>
        <time>2016-05-23T12:03:17Z</time>
      </trkpt>
      <trkpt lat="43.97498" lon="7.54412">
        <ele>466</ele>
        <time>2016-05-23T12:05:05Z</time>
      </trkpt>
      <trkpt lat="43.97505" lon="7.54433">
        <ele>468</ele>
        <time>2016-05-23T12:05:41Z</time>
      </trkpt>
      <trkpt lat="43.97522" lon="7.54431">
        <ele>466</ele>
        <time>2016-05-23T12:06:00Z</time>
      </trkpt>
      <trkpt lat="43.97534" lon="7.54413">
        <ele>466</ele>
        <time>2016-05-23T12:06:22Z</time>
      </trkpt>
      <trkpt lat="43.97547" lon="7.54397">
        <ele>465</ele>
        <time>2016-05-23T12:07:22Z</time>
      </trkpt>
      <trkpt lat="43.97547" lon="7.54374">
        <ele>464</ele>
        <time>2016-05-23T12:07:47Z</time>
      </trkpt>
      <trkpt lat="43.97537" lon="7.54354">
        <ele>463</ele>
        <time>2016-05-23T12:08:04Z</time>
      </trkpt>
      <trkpt lat="43.97551" lon="7.5434">
        <ele>465</ele>
        <time>2016-05-23T12:08:34Z</time>
      </trkpt>
      <trkpt lat="43.97566" lon="7.54329">
        <ele>461</ele>
        <time>2016-05-23T12:08:52Z</time>
      </trkpt>
      <trkpt lat="43.97583" lon="7.54323">
        <ele>461</ele>
        <time>2016-05-23T12:09:19Z</time>
      </trkpt>
      <trkpt lat="43.97599" lon="7.54314">
        <ele>461</ele>
        <time>2016-05-23T12:09:43Z</time>
      </trkpt>
      <trkpt lat="43.97613" lon="7.54299">
        <ele>474</ele>
        <time>2016-05-23T12:10:07Z</time>
      </trkpt>
      <trkpt lat="43.97625" lon="7.54282">
        <ele>478</ele>
        <time>2016-05-23T12:10:31Z</time>
      </trkpt>
      <trkpt lat="43.9764" lon="7.54288">
        <ele>468</ele>
        <time>2016-05-23T12:13:07Z</time>
      </trkpt>
      <trkpt lat="43.97657" lon="7.54291">
        <ele>462</ele>
        <time>2016-05-23T12:13:28Z</time>
      </trkpt>
      <trkpt lat="43.97674" lon="7.54297">
        <ele>463</ele>
        <time>2016-05-23T12:13:45Z</time>
      </trkpt>
      <trkpt lat="43.9769" lon="7.54302">
        <ele>460</ele>
        <time>2016-05-23T12:14:00Z</time>
      </trkpt>
      <trkpt lat="43.9771" lon="7.54313">
        <ele>461</ele>
        <time>2016-05-23T12:14:15Z</time>
      </trkpt>
      <trkpt lat="43.97722" lon="7.54331">
        <ele>457</ele>
        <time>2016-05-23T12:14:41Z</time>
      </trkpt>
      <trkpt lat="43.97735" lon="7.54347">
        <ele>451</ele>
        <time>2016-05-23T12:15:00Z</time>
      </trkpt>
      <trkpt lat="43.97751" lon="7.54354">
        <ele>447</ele>
        <time>2016-05-23T12:15:30Z</time>
      </trkpt>
      <trkpt lat="43.97769" lon="7.54358">
        <ele>451</ele>
        <time>2016-05-23T12:15:46Z</time>
      </trkpt>
      <trkpt lat="43.97793" lon="7.54365">
        <ele>457</ele>
        <time>2016-05-23T12:16:00Z</time>
      </trkpt>
      <trkpt lat="43.97801" lon="7.54369">
        <ele>454</ele>
        <time>2016-05-23T12:16:06Z</time>
      </trkpt>
      <trkpt lat="43.97817" lon="7.54419">
        <ele>450</ele>
        <time>2016-05-23T12:16:39Z</time>
      </trkpt>
      <trkpt lat="43.97827" lon="7.54434">
        <ele>448</ele>
        <time>2016-05-23T12:16:54Z</time>
      </trkpt>
      <trkpt lat="43.97848" lon="7.54431">
        <ele>459</ele>
        <time>2016-05-23T12:17:08Z</time>
      </trkpt>
      <trkpt lat="43.97867" lon="7.54445">
        <ele>452</ele>
        <time>2016-05-23T12:17:23Z</time>
      </trkpt>
      <trkpt lat="43.97879" lon="7.54463">
        <ele>446</ele>
        <time>2016-05-23T12:17:44Z</time>
      </trkpt>
      <trkpt lat="43.97896" lon="7.54468">
        <ele>438</ele>
        <time>2016-05-23T12:18:11Z</time>
      </trkpt>
      <trkpt lat="43.97915" lon="7.54457">
        <ele>434</ele>
        <time>2016-05-23T12:18:26Z</time>
      </trkpt>
      <trkpt lat="43.97931" lon="7.54463">
        <ele>419</ele>
        <time>2016-05-23T12:18:49Z</time>
      </trkpt>
      <trkpt lat="43.97944" lon="7.54478">
        <ele>413</ele>
        <time>2016-05-23T12:19:08Z</time>
      </trkpt>
      <trkpt lat="43.97962" lon="7.54481">
        <ele>416</ele>
        <time>2016-05-23T12:21:48Z</time>
      </trkpt>
      <trkpt lat="43.97983" lon="7.54482">
        <ele>408</ele>
        <time>2016-05-23T12:22:02Z</time>
      </trkpt>
      <trkpt lat="43.98" lon="7.54488">
        <ele>401</ele>
        <time>2016-05-23T12:22:19Z</time>
      </trkpt>
      <trkpt lat="43.98009" lon="7.54508">
        <ele>400</ele>
        <time>2016-05-23T12:24:01Z</time>
      </trkpt>
      <trkpt lat="43.98022" lon="7.54523">
        <ele>402</ele>
        <time>2016-05-23T12:24:16Z</time>
      </trkpt>
      <trkpt lat="43.98042" lon="7.5454">
        <ele>397</ele>
        <time>2016-05-23T12:24:31Z</time>
      </trkpt>
      <trkpt lat="43.98054" lon="7.54556">
        <ele>396</ele>
        <time>2016-05-23T12:24:50Z</time>
      </trkpt>
      <trkpt lat="43.98068" lon="7.54568">
        <ele>389</ele>
        <time>2016-05-23T12:25:05Z</time>
      </trkpt>
      <trkpt lat="43.98083" lon="7.5457">
        <ele>384</ele>
        <time>2016-05-23T12:25:20Z</time>
      </trkpt>
      <trkpt lat="43.98105" lon="7.54583">
        <ele>380</ele>
        <time>2016-05-23T12:25:34Z</time>
      </trkpt>
      <trkpt lat="43.98125" lon="7.54589">
        <ele>374</ele>
        <time>2016-05-23T12:25:48Z</time>
      </trkpt>
      <trkpt lat="43.98129" lon="7.54592">
        <ele>364</ele>
        <time>2016-05-23T12:26:06Z</time>
      </trkpt>
      <trkpt lat="43.98149" lon="7.54587">
        <ele>358</ele>
        <time>2016-05-23T12:26:40Z</time>
      </trkpt>
      <trkpt lat="43.98157" lon="7.54609">
        <ele>349</ele>
        <time>2016-05-23T12:26:55Z</time>
      </trkpt>
      <trkpt lat="43.98168" lon="7.54629">
        <ele>351</ele>
        <time>2016-05-23T12:27:13Z</time>
      </trkpt>
      <trkpt lat="43.98175" lon="7.5465">
        <ele>356</ele>
        <time>2016-05-23T12:27:56Z</time>
      </trkpt>
      <trkpt lat="43.98191" lon="7.54642">
        <ele>356</ele>
        <time>2016-05-23T12:39:46Z</time>
      </trkpt>
      <trkpt lat="43.9821" lon="7.54639">
        <ele>354</ele>
        <time>2016-05-23T12:40:00Z</time>
      </trkpt>
      <trkpt lat="43.98233" lon="7.54642">
        <ele>352</ele>
        <time>2016-05-23T12:40:14Z</time>
      </trkpt>
      <trkpt lat="43.98252" lon="7.54642">
        <ele>354</ele>
        <time>2016-05-23T12:40:28Z</time>
      </trkpt>
      <trkpt lat="43.9827" lon="7.54644">
        <ele>356</ele>
        <time>2016-05-23T12:40:43Z</time>
      </trkpt>
      <trkpt lat="43.98285" lon="7.54651">
        <ele>357</ele>
        <time>2016-05-23T12:40:58Z</time>
      </trkpt>
      <trkpt lat="43.98303" lon="7.54658">
        <ele>356</ele>
        <time>2016-05-23T12:41:13Z</time>
      </trkpt>
      <trkpt lat="43.98316" lon="7.54675">
        <ele>372</ele>
        <time>2016-05-23T12:42:55Z</time>
      </trkpt>
      <trkpt lat="43.98318" lon="7.54695">
        <ele>380</ele>
        <time>2016-05-23T12:44:27Z</time>
      </trkpt>
      <trkpt lat="43.98326" lon="7.54717">
        <ele>383</ele>
        <time>2016-05-23T12:44:49Z</time>
      </trkpt>
      <trkpt lat="43.9832" lon="7.54743">
        <ele>397</ele>
        <time>2016-05-23T12:45:03Z</time>
      </trkpt>
      <trkpt lat="43.98329" lon="7.54762">
        <ele>390</ele>
        <time>2016-05-23T12:45:21Z</time>
      </trkpt>
      <trkpt lat="43.98333" lon="7.54782">
        <ele>383</ele>
        <time>2016-05-23T12:46:58Z</time>
      </trkpt>
      <trkpt lat="43.98349" lon="7.54807">
        <ele>372</ele>
        <time>2016-05-23T12:47:13Z</time>
      </trkpt>
      <trkpt lat="43.98341" lon="7.5483">
        <ele>378</ele>
        <time>2016-05-23T12:47:31Z</time>
      </trkpt>
      <trkpt lat="43.98337" lon="7.54854">
        <ele>381</ele>
        <time>2016-05-23T12:47:52Z</time>
      </trkpt>
      <trkpt lat="43.98333" lon="7.54875">
        <ele>384</ele>
        <time>2016-05-23T12:48:07Z</time>
      </trkpt>
      <trkpt lat="43.98337" lon="7.54898">
        <ele>386</ele>
        <time>2016-05-23T12:48:24Z</time>
      </trkpt>
      <trkpt lat="43.98345" lon="7.5492">
        <ele>389</ele>
        <time>2016-05-23T12:48:38Z</time>
      </trkpt>
      <trkpt lat="43.9832" lon="7.54943">
        <ele>392</ele>
        <time>2016-05-23T12:48:53Z</time>
      </trkpt>
      <trkpt lat="43.98325" lon="7.54963">
        <ele>397</ele>
        <time>2016-05-23T12:49:09Z</time>
      </trkpt>
      <trkpt lat="43.9834" lon="7.54982">
        <ele>402</ele>
        <time>2016-05-23T12:49:24Z</time>
      </trkpt>
      <trkpt lat="43.9834" lon="7.55001">
        <ele>414</ele>
        <time>2016-05-23T12:50:30Z</time>
      </trkpt>
      <trkpt lat="43.98329" lon="7.55021">
        <ele>416</ele>
        <time>2016-05-23T12:50:45Z</time>
      </trkpt>
      <trkpt lat="43.9834" lon="7.55036">
        <ele>416</ele>
        <time>2016-05-23T12:50:59Z</time>
      </trkpt>
      <trkpt lat="43.98363" lon="7.55051">
        <ele>411</ele>
        <time>2016-05-23T12:51:14Z</time>
      </trkpt>
      <trkpt lat="43.98373" lon="7.55071">
        <ele>427</ele>
        <time>2016-05-23T12:51:41Z</time>
      </trkpt>
      <trkpt lat="43.98385" lon="7.5509">
        <ele>432</ele>
        <time>2016-05-23T12:52:02Z</time>
      </trkpt>
      <trkpt lat="43.98394" lon="7.55112">
        <ele>432</ele>
        <time>2016-05-23T12:52:18Z</time>
      </trkpt>
      <trkpt lat="43.98407" lon="7.55128">
        <ele>431</ele>
        <time>2016-05-23T12:52:36Z</time>
      </trkpt>
      <trkpt lat="43.9842" lon="7.55145">
        <ele>429</ele>
        <time>2016-05-23T12:52:56Z</time>
      </trkpt>
      <trkpt lat="43.98433" lon="7.55161">
        <ele>428</ele>
        <time>2016-05-23T12:53:17Z</time>
      </trkpt>
      <trkpt lat="43.98444" lon="7.55177">
        <ele>433</ele>
        <time>2016-05-23T12:53:35Z</time>
      </trkpt>
      <trkpt lat="43.98458" lon="7.5519">
        <ele>435</ele>
        <time>2016-05-23T12:53:59Z</time>
      </trkpt>
      <trkpt lat="43.98475" lon="7.55196">
        <ele>439</ele>
        <time>2016-05-23T12:54:18Z</time>
      </trkpt>
      <trkpt lat="43.98479" lon="7.55197">
        <ele>439</ele>
        <time>2016-05-23T12:54:25Z</time>
      </trkpt>
      <trkpt lat="43.98478" lon="7.55222">
        <ele>445</ele>
        <time>2016-05-23T12:56:43Z</time>
      </trkpt>
      <trkpt lat="43.98481" lon="7.55246">
        <ele>446</ele>
        <time>2016-05-23T12:57:06Z</time>
      </trkpt>
      <trkpt lat="43.98495" lon="7.55256">
        <ele>441</ele>
        <time>2016-05-23T12:57:26Z</time>
      </trkpt>
      <trkpt lat="43.98511" lon="7.5526">
        <ele>443</ele>
        <time>2016-05-23T12:57:42Z</time>
      </trkpt>
      <trkpt lat="43.98523" lon="7.55279">
        <ele>445</ele>
        <time>2016-05-23T12:58:02Z</time>
      </trkpt>
      <trkpt lat="43.98528" lon="7.55301">
        <ele>451</ele>
        <time>2016-05-23T12:58:23Z</time>
      </trkpt>
      <trkpt lat="43.98545" lon="7.55305">
        <ele>454</ele>
        <time>2016-05-23T12:58:43Z</time>
      </trkpt>
      <trkpt lat="43.98561" lon="7.55301">
        <ele>458</ele>
        <time>2016-05-23T12:59:04Z</time>
      </trkpt>
      <trkpt lat="43.98578" lon="7.55306">
        <ele>462</ele>
        <time>2016-05-23T12:59:22Z</time>
      </trkpt>
      <trkpt lat="43.98595" lon="7.55299">
        <ele>464</ele>
        <time>2016-05-23T12:59:48Z</time>
      </trkpt>
      <trkpt lat="43.98612" lon="7.55291">
        <ele>471</ele>
        <time>2016-05-23T13:00:13Z</time>
      </trkpt>
      <trkpt lat="43.9863" lon="7.55291">
        <ele>479</ele>
        <time>2016-05-23T13:06:24Z</time>
      </trkpt>
      <trkpt lat="43.98647" lon="7.55288">
        <ele>481</ele>
        <time>2016-05-23T13:06:47Z</time>
      </trkpt>
      <trkpt lat="43.98664" lon="7.55281">
        <ele>482</ele>
        <time>2016-05-23T13:07:11Z</time>
      </trkpt>
      <trkpt lat="43.98658" lon="7.55304">
        <ele>492</ele>
        <time>2016-05-23T13:08:05Z</time>
      </trkpt>
      <trkpt lat="43.98645" lon="7.55317">
        <ele>492</ele>
        <time>2016-05-23T13:08:35Z</time>
      </trkpt>
      <trkpt lat="43.98632" lon="7.55333">
        <ele>496</ele>
        <time>2016-05-23T13:08:58Z</time>
      </trkpt>
      <trkpt lat="43.9862" lon="7.55351">
        <ele>502</ele>
        <time>2016-05-23T13:09:16Z</time>
      </trkpt>
      <trkpt lat="43.98613" lon="7.55373">
        <ele>509</ele>
        <time>2016-05-23T13:09:48Z</time>
      </trkpt>
      <trkpt lat="43.98626" lon="7.55389">
        <ele>512</ele>
        <time>2016-05-23T13:10:38Z</time>
      </trkpt>
      <trkpt lat="43.98616" lon="7.55409">
        <ele>524</ele>
        <time>2016-05-23T13:12:26Z</time>
      </trkpt>
      <trkpt lat="43.98604" lon="7.55425">
        <ele>524</ele>
        <time>2016-05-23T13:12:42Z</time>
      </trkpt>
      <trkpt lat="43.98595" lon="7.55447">
        <ele>517</ele>
        <time>2016-05-23T13:14:19Z</time>
      </trkpt>
      <trkpt lat="43.98588" lon="7.55469">
        <ele>528</ele>
        <time>2016-05-23T13:14:47Z</time>
      </trkpt>
      <trkpt lat="43.98572" lon="7.55481">
        <ele>524</ele>
        <time>2016-05-23T13:15:05Z</time>
      </trkpt>
      <trkpt lat="43.98555" lon="7.55477">
        <ele>531</ele>
        <time>2016-05-23T13:15:25Z</time>
      </trkpt>
      <trkpt lat="43.98538" lon="7.5548">
        <ele>530</ele>
        <time>2016-05-23T13:16:00Z</time>
      </trkpt>
      <trkpt lat="43.9852" lon="7.5548">
        <ele>536</ele>
        <time>2016-05-23T13:16:19Z</time>
      </trkpt>
      <trkpt lat="43.98503" lon="7.55479">
        <ele>537</ele>
        <time>2016-05-23T13:16:41Z</time>
      </trkpt>
      <trkpt lat="43.98487" lon="7.55476">
        <ele>554</ele>
        <time>2016-05-23T13:18:00Z</time>
      </trkpt>
      <trkpt lat="43.98501" lon="7.55487">
        <ele>543</ele>
        <time>2016-05-23T13:18:54Z</time>
      </trkpt>
      <trkpt lat="43.98506" lon="7.55509">
        <ele>550</ele>
        <time>2016-05-23T13:19:20Z</time>
      </trkpt>
      <trkpt lat="43.9851" lon="7.55532">
        <ele>550</ele>
        <time>2016-05-23T13:19:39Z</time>
      </trkpt>
      <trkpt lat="43.98511" lon="7.55555">
        <ele>552</ele>
        <time>2016-05-23T13:19:55Z</time>
      </trkpt>
      <trkpt lat="43.9851" lon="7.55579">
        <ele>560</ele>
        <time>2016-05-23T13:20:13Z</time>
      </trkpt>
      <trkpt lat="43.98504" lon="7.55602">
        <ele>564</ele>
        <time>2016-05-23T13:20:29Z</time>
      </trkpt>
      <trkpt lat="43.98508" lon="7.55626">
        <ele>567</ele>
        <time>2016-05-23T13:20:51Z</time>
      </trkpt>
      <trkpt lat="43.98517" lon="7.55647">
        <ele>563</ele>
        <time>2016-05-23T13:21:12Z</time>
      </trkpt>
      <trkpt lat="43.98519" lon="7.55671">
        <ele>566</ele>
        <time>2016-05-23T13:21:37Z</time>
      </trkpt>
      <trkpt lat="43.98519" lon="7.55696">
        <ele>573</ele>
        <time>2016-05-23T13:21:55Z</time>
      </trkpt>
      <trkpt lat="43.98518" lon="7.55719">
        <ele>574</ele>
        <time>2016-05-23T13:22:13Z</time>
      </trkpt>
      <trkpt lat="43.98521" lon="7.55743">
        <ele>580</ele>
        <time>2016-05-23T13:22:35Z</time>
      </trkpt>
      <trkpt lat="43.98518" lon="7.55766">
        <ele>584</ele>
        <time>2016-05-23T13:22:52Z</time>
      </trkpt>
      <trkpt lat="43.98522" lon="7.55788">
        <ele>585</ele>
        <time>2016-05-23T13:23:12Z</time>
      </trkpt>
      <trkpt lat="43.98523" lon="7.55811">
        <ele>584</ele>
        <time>2016-05-23T13:23:39Z</time>
      </trkpt>
      <trkpt lat="43.98524" lon="7.55836">
        <ele>589</ele>
        <time>2016-05-23T13:23:57Z</time>
      </trkpt>
      <trkpt lat="43.98522" lon="7.55859">
        <ele>591</ele>
        <time>2016-05-23T13:24:17Z</time>
      </trkpt>
      <trkpt lat="43.98525" lon="7.55883">
        <ele>592</ele>
        <time>2016-05-23T13:24:38Z</time>
      </trkpt>
      <trkpt lat="43.98525" lon="7.55907">
        <ele>590</ele>
        <time>2016-05-23T13:24:55Z</time>
      </trkpt>
      <trkpt lat="43.9852" lon="7.55931">
        <ele>602</ele>
        <time>2016-05-23T13:25:15Z</time>
      </trkpt>
      <trkpt lat="43.98528" lon="7.5591">
        <ele>605</ele>
        <time>2016-05-23T13:25:54Z</time>
      </trkpt>
      <trkpt lat="43.98531" lon="7.55887">
        <ele>608</ele>
        <time>2016-05-23T13:26:12Z</time>
      </trkpt>
      <trkpt lat="43.98538" lon="7.55865">
        <ele>605</ele>
        <time>2016-05-23T13:26:29Z</time>
      </trkpt>
      <trkpt lat="43.98545" lon="7.55842">
        <ele>604</ele>
        <time>2016-05-23T13:26:51Z</time>
      </trkpt>
      <trkpt lat="43.98554" lon="7.5582">
        <ele>610</ele>
        <time>2016-05-23T13:27:05Z</time>
      </trkpt>
      <trkpt lat="43.98555" lon="7.55795">
        <ele>608</ele>
        <time>2016-05-23T13:27:29Z</time>
      </trkpt>
      <trkpt lat="43.98544" lon="7.55807">
        <ele>606</ele>
        <time>2016-05-23T13:37:18Z</time>
      </trkpt>
      <trkpt lat="43.98544" lon="7.55807">
        <ele>606</ele>
        <time>2016-05-23T13:37:18Z</time>
      </trkpt>
    </trkseg>
  </trk>
</gpx>